createdAt,value
2017-11-26T00:00:19.007Z,90.56
2017-11-26T00:02:46.681Z,90.32
2017-11-26T00:05:14.299Z,90.32
2017-11-26T00:07:42.026Z,90.14
2017-11-26T00:10:09.689Z,89.95
2017-11-26T00:12:37.409Z,89.91
2017-11-26T00:15:05.201Z,89.87
2017-11-26T00:17:32.868Z,89.84
2017-11-26T00:20:00.604Z,89.95
2017-11-26T00:22:28.332Z,90.05
2017-11-26T00:24:56.033Z,89.88
2017-11-26T00:27:23.664Z,89.86
2017-11-26T00:29:51.381Z,90.10
2017-11-26T00:32:19.122Z,90.03
2017-11-26T00:34:46.776Z,89.92
2017-11-26T00:37:14.504Z,89.84
2017-11-26T00:39:42.116Z,89.64
2017-11-26T00:42:09.789Z,89.77
2017-11-26T00:44:37.455Z,89.74
2017-11-26T00:47:05.130Z,89.66
2017-11-26T00:49:32.748Z,89.66
2017-11-26T00:52:00.407Z,89.37
2017-11-26T00:54:28.019Z,89.16
2017-11-26T00:56:55.632Z,89.15
2017-11-26T00:59:23.300Z,89.22
2017-11-26T01:01:50.924Z,89.20
2017-11-26T01:04:18.540Z,89.18
2017-11-26T01:06:46.260Z,89.40
2017-11-26T01:09:13.872Z,89.68
2017-11-26T01:11:41.543Z,90.03
2017-11-26T01:14:09.280Z,90.20
2017-11-26T01:16:36.900Z,90.20
2017-11-26T01:19:04.513Z,90.32
2017-11-26T01:21:32.179Z,90.53
2017-11-26T01:23:59.789Z,90.63
2017-11-26T01:26:27.400Z,90.57
2017-11-26T01:28:55.065Z,90.55
2017-11-26T01:31:22.740Z,90.75
2017-11-26T01:33:50.357Z,90.64
2017-11-26T01:36:18.105Z,90.21
2017-11-26T01:38:45.761Z,90.05
2017-11-26T01:41:13.387Z,90.31
2017-11-26T01:43:41.066Z,90.15
2017-11-26T01:46:08.676Z,90.06
2017-11-26T01:48:36.360Z,89.90
2017-11-26T01:51:04.020Z,89.67
2017-11-26T01:53:31.629Z,89.38
2017-11-26T01:55:59.352Z,89.56
2017-11-26T01:58:27.021Z,89.63
2017-11-26T02:00:54.649Z,89.71
2017-11-26T02:03:22.337Z,89.74
2017-11-26T02:05:50.064Z,89.89
2017-11-26T02:08:17.737Z,90.02
2017-11-26T02:10:45.355Z,90.04
2017-11-26T02:13:13.049Z,90.00
2017-11-26T02:15:40.737Z,90.01
2017-11-26T02:18:08.413Z,90.05
2017-11-26T02:20:36.145Z,90.26
2017-11-26T02:23:03.864Z,90.21
2017-11-26T02:25:31.483Z,90.18
2017-11-26T02:27:59.148Z,90.47
2017-11-26T02:30:26.784Z,90.67
2017-11-26T02:33:06.406Z,90.91
2017-11-26T02:38:34.085Z,90.62
2017-11-26T02:41:01.724Z,90.62
2017-11-26T02:43:29.344Z,90.69
2017-11-26T02:45:57.047Z,90.83
2017-11-26T02:48:24.685Z,90.81
2017-11-26T02:50:52.301Z,90.77
2017-11-26T02:53:19.984Z,90.72
2017-11-26T02:55:47.660Z,90.29
2017-11-26T02:58:15.338Z,90.25
2017-11-26T03:00:43.057Z,90.11
2017-11-26T03:03:10.670Z,89.84
2017-11-26T03:05:38.280Z,89.75
2017-11-26T03:08:05.951Z,89.97
2017-11-26T03:10:33.592Z,89.99
2017-11-26T03:13:01.270Z,89.85
2017-11-26T03:15:28.937Z,89.93
2017-11-26T03:17:56.608Z,90.05
2017-11-26T03:20:24.232Z,90.03
2017-11-26T03:22:51.901Z,90.02
2017-11-26T03:25:19.517Z,89.99
2017-11-26T03:27:47.175Z,90.27
2017-11-26T03:30:14.893Z,90.41
2017-11-26T03:32:42.572Z,90.46
2017-11-26T03:35:10.248Z,90.37
2017-11-26T03:37:37.925Z,90.45
2017-11-26T03:40:05.584Z,90.62
2017-11-26T03:42:33.317Z,90.61
2017-11-26T03:45:01.032Z,90.59
2017-11-26T03:47:28.650Z,90.57
2017-11-26T03:49:56.263Z,90.26
2017-11-26T03:52:23.978Z,90.50
2017-11-26T03:54:51.585Z,90.63
2017-11-26T03:57:19.200Z,90.78
2017-11-26T03:59:46.912Z,90.91
2017-11-26T04:02:14.526Z,90.89
2017-11-26T04:04:42.128Z,90.80
2017-11-26T04:07:09.788Z,90.64
2017-11-26T04:09:37.404Z,90.44
2017-11-26T04:12:05.068Z,90.48
2017-11-26T04:14:32.741Z,90.13
2017-11-26T04:17:00.393Z,90.39
2017-11-26T04:19:28.073Z,90.46
2017-11-26T04:21:55.741Z,90.61
2017-11-26T04:24:23.349Z,90.83
2017-11-26T04:26:50.996Z,90.92
2017-11-26T04:29:18.721Z,90.96
2017-11-26T04:31:46.336Z,90.86
2017-11-26T04:34:13.945Z,90.80
2017-11-26T04:36:41.609Z,90.80
2017-11-26T04:39:09.221Z,90.70
2017-11-26T04:41:36.830Z,90.57
2017-11-26T04:44:04.492Z,90.53
2017-11-26T04:46:32.157Z,90.71
2017-11-26T04:48:59.784Z,90.71
2017-11-26T04:51:27.442Z,90.66
2017-11-26T04:53:55.181Z,90.67
2017-11-26T04:56:22.849Z,90.80
2017-11-26T04:58:50.605Z,90.69
2017-11-26T05:01:18.403Z,90.94
2017-11-26T05:03:46.089Z,91.05
2017-11-26T05:06:13.769Z,91.27
2017-11-26T05:08:41.389Z,91.23
2017-11-26T05:11:09.015Z,91.11
2017-11-26T05:13:36.745Z,91.00
2017-11-26T05:16:04.421Z,90.87
2017-11-26T05:18:32.089Z,90.80
2017-11-26T05:20:59.778Z,90.52
2017-11-26T05:23:27.392Z,90.61
2017-11-26T05:25:55.007Z,90.45
2017-11-26T05:28:22.730Z,90.30
2017-11-26T05:30:50.352Z,90.15
2017-11-26T05:33:18.051Z,90.35
2017-11-26T05:35:45.716Z,90.63
2017-11-26T05:38:13.342Z,90.62
2017-11-26T05:40:40.949Z,90.74
2017-11-26T05:43:08.659Z,90.71
2017-11-26T05:45:36.396Z,90.69
2017-11-26T05:48:04.105Z,90.55
2017-11-26T05:50:31.833Z,90.35
2017-11-26T05:52:59.497Z,90.19
2017-11-26T05:55:27.119Z,89.94
2017-11-26T05:57:54.837Z,89.54
2017-11-26T06:00:22.476Z,89.43
2017-11-26T06:02:50.162Z,89.57
2017-11-26T06:05:17.825Z,89.36
2017-11-26T06:07:45.445Z,89.15
2017-11-26T06:10:13.065Z,89.26
2017-11-26T06:12:40.723Z,88.81
2017-11-26T06:15:08.344Z,88.87
2017-11-26T06:17:36.013Z,88.21
2017-11-26T06:20:03.720Z,88.22
2017-11-26T06:22:31.379Z,88.60
2017-11-26T06:24:59.043Z,88.65
2017-11-26T06:27:26.764Z,88.55
2017-11-26T06:29:54.449Z,88.21
2017-11-26T06:32:22.120Z,88.24
2017-11-26T06:34:49.862Z,88.26
2017-11-26T06:37:17.529Z,88.49
2017-11-26T06:39:45.299Z,88.53
2017-11-26T06:42:13.021Z,88.30
2017-11-26T06:44:40.747Z,88.45
2017-11-26T06:47:08.432Z,88.64
2017-11-26T06:49:36.113Z,88.39
2017-11-26T06:52:03.724Z,87.54
2017-11-26T06:54:31.350Z,87.66
2017-11-26T06:56:59.067Z,87.61
2017-11-26T06:59:26.745Z,87.47
2017-11-26T07:01:54.457Z,87.52
2017-11-26T07:04:22.135Z,87.47
2017-11-26T07:06:49.856Z,87.36
2017-11-26T07:09:17.468Z,87.39
2017-11-26T07:11:45.134Z,87.58
2017-11-26T07:14:13.017Z,87.47
2017-11-26T07:16:40.643Z,87.27
2017-11-26T07:19:08.331Z,87.18
2017-11-26T07:21:36.009Z,86.78
2017-11-26T07:24:03.690Z,86.88
2017-11-26T07:26:31.416Z,86.27
2017-11-26T07:28:59.087Z,85.68
2017-11-26T07:31:26.773Z,85.82
2017-11-26T07:33:54.506Z,86.38
2017-11-26T07:36:22.120Z,86.00
2017-11-26T07:38:49.786Z,86.06
2017-11-26T07:41:17.501Z,85.76
2017-11-26T07:43:45.168Z,85.68
2017-11-26T07:46:12.795Z,85.26
2017-11-26T07:48:40.456Z,85.06
2017-11-26T07:51:08.064Z,85.09
2017-11-26T07:53:35.674Z,84.90
2017-11-26T07:56:03.369Z,84.90
2017-11-26T07:58:31.041Z,84.55
2017-11-26T08:00:58.710Z,85.28
2017-11-26T08:03:26.444Z,84.62
2017-11-26T08:05:54.114Z,85.15
2017-11-26T08:08:21.728Z,85.04
2017-11-26T08:10:49.384Z,85.32
2017-11-26T08:13:16.984Z,84.76
2017-11-26T08:15:44.601Z,84.19
2017-11-26T08:18:12.248Z,83.70
2017-11-26T08:20:39.925Z,82.96
2017-11-26T08:23:07.532Z,82.10
2017-11-26T08:25:35.321Z,83.09
2017-11-26T08:28:02.945Z,82.35
2017-11-26T08:30:30.552Z,82.26
2017-11-26T08:32:58.210Z,81.59
2017-11-26T08:35:25.820Z,82.11
2017-11-26T08:37:53.498Z,79.81
2017-11-26T08:40:21.220Z,79.42
2017-11-26T08:42:48.954Z,79.21
2017-11-26T08:45:16.609Z,79.73
2017-11-26T08:47:44.355Z,79.35
2017-11-26T08:50:12.013Z,78.08
2017-11-26T08:52:39.677Z,79.61
2017-11-26T08:55:07.465Z,78.11
2017-11-26T08:57:35.131Z,77.79
2017-11-26T09:00:02.801Z,77.17
2017-11-26T09:02:30.513Z,76.03
2017-11-26T09:04:58.244Z,76.55
2017-11-26T09:07:25.932Z,76.99
2017-11-26T09:09:53.697Z,77.21
2017-11-26T09:12:21.396Z,76.61
2017-11-26T09:14:49.076Z,75.86
2017-11-26T09:17:16.816Z,76.98
2017-11-26T09:19:44.513Z,75.16
2017-11-26T09:22:12.196Z,74.72
2017-11-26T09:24:39.981Z,73.86
2017-11-26T09:27:07.589Z,74.93
2017-11-26T09:29:35.242Z,76.32
2017-11-26T09:32:02.917Z,76.05
2017-11-26T09:34:30.547Z,76.90
2017-11-26T09:36:58.221Z,76.15
2017-11-26T09:39:25.945Z,75.70
2017-11-26T09:41:53.563Z,76.55
2017-11-26T09:44:21.204Z,76.12
2017-11-26T09:46:48.990Z,78.53
2017-11-26T09:49:16.629Z,78.17
2017-11-26T09:51:44.308Z,79.64
2017-11-26T09:54:12.074Z,79.76
2017-11-26T09:56:39.705Z,79.59
2017-11-26T09:59:07.324Z,78.83
2017-11-26T10:01:35.053Z,79.73
2017-11-26T10:04:02.682Z,80.98
2017-11-26T10:06:30.316Z,80.25
2017-11-26T10:08:58.032Z,79.59
2017-11-26T10:11:25.682Z,81.31
2017-11-26T10:13:53.361Z,81.03
2017-11-26T10:16:21.160Z,81.06
2017-11-26T10:18:48.837Z,79.94
2017-11-26T10:21:16.465Z,80.44
2017-11-26T10:23:44.128Z,79.26
2017-11-26T10:26:11.798Z,78.88
2017-11-26T10:28:39.414Z,79.26
2017-11-26T10:31:07.141Z,79.54
2017-11-26T10:33:34.887Z,81.15
2017-11-26T10:36:02.521Z,81.14
2017-11-26T10:38:30.285Z,81.46
2017-11-26T10:40:57.973Z,82.74
2017-11-26T10:43:25.679Z,82.11
2017-11-26T10:45:53.444Z,80.86
2017-11-26T10:48:21.126Z,80.76
2017-11-26T10:50:48.839Z,81.44
2017-11-26T10:53:16.540Z,82.21
2017-11-26T10:55:44.259Z,81.26
2017-11-26T10:58:11.999Z,80.50
2017-11-26T11:00:39.769Z,81.12
2017-11-26T11:03:07.401Z,81.07
2017-11-26T11:05:35.101Z,81.04
2017-11-26T11:08:02.776Z,81.78
2017-11-26T11:10:30.418Z,81.25
2017-11-26T11:12:58.048Z,81.25
2017-11-26T11:15:25.772Z,81.29
2017-11-26T11:17:53.401Z,81.16
2017-11-26T11:20:21.041Z,80.78
2017-11-26T11:22:48.704Z,80.80
2017-11-26T11:25:16.356Z,80.78
2017-11-26T11:27:43.973Z,82.42
2017-11-26T11:30:11.643Z,82.24
2017-11-26T11:32:39.249Z,82.03
2017-11-26T11:35:06.875Z,81.18
2017-11-26T11:37:34.564Z,82.08
2017-11-26T11:40:02.183Z,80.79
2017-11-26T11:42:29.849Z,79.66
2017-11-26T11:44:57.568Z,79.94
2017-11-26T11:47:25.194Z,78.52
2017-11-26T11:49:52.954Z,78.26
2017-11-26T11:52:20.721Z,77.13
2017-11-26T11:54:48.460Z,76.80
2017-11-26T11:57:16.092Z,77.59
2017-11-26T11:59:43.769Z,77.53
2017-11-26T12:02:11.452Z,78.52
2017-11-26T12:04:39.087Z,78.93
2017-11-26T12:07:06.761Z,78.75
2017-11-26T12:09:34.457Z,78.85
2017-11-26T12:12:02.089Z,79.18
2017-11-26T12:14:29.768Z,79.05
2017-11-26T12:16:57.397Z,78.47
2017-11-26T12:19:25.080Z,78.71
2017-11-26T12:21:52.817Z,79.15
2017-11-26T12:24:20.556Z,78.43
2017-11-26T12:26:48.240Z,79.33
2017-11-26T12:29:16.050Z,79.94
2017-11-26T12:31:43.789Z,80.37
2017-11-26T12:34:11.473Z,81.33
2017-11-26T12:36:39.225Z,81.84
2017-11-26T12:39:06.912Z,82.61
2017-11-26T12:41:34.552Z,82.74
2017-11-26T12:44:02.265Z,82.81
2017-11-26T12:46:29.903Z,82.80
2017-11-26T12:48:57.540Z,82.63
2017-11-26T12:51:25.321Z,82.08
2017-11-26T12:53:52.984Z,82.49
2017-11-26T12:56:20.595Z,82.22
2017-11-26T12:58:48.291Z,81.90
2017-11-26T13:01:15.936Z,82.82
2017-11-26T13:03:43.622Z,83.19
2017-11-26T13:06:11.301Z,83.26
2017-11-26T13:08:39.104Z,83.27
2017-11-26T13:11:06.752Z,83.50
2017-11-26T13:13:34.541Z,83.22
2017-11-26T13:16:02.225Z,82.79
2017-11-26T13:18:29.853Z,83.22
2017-11-26T13:20:57.524Z,83.26
2017-11-26T13:23:25.176Z,84.74
2017-11-26T13:25:52.881Z,85.17
2017-11-26T13:28:20.633Z,85.41
2017-11-26T13:30:48.427Z,85.09
2017-11-26T13:33:16.217Z,85.22
2017-11-26T13:35:43.939Z,85.03
2017-11-26T13:38:11.620Z,85.14
2017-11-26T13:40:39.279Z,85.07
2017-11-26T13:43:07.145Z,85.80
2017-11-26T13:45:34.945Z,86.21
2017-11-26T13:48:02.603Z,87.08
2017-11-26T13:50:30.374Z,87.11
2017-11-26T13:52:58.141Z,87.40
2017-11-26T13:55:25.790Z,87.33
2017-11-26T13:57:53.471Z,87.42
2017-11-26T14:00:21.191Z,87.51
2017-11-26T14:02:48.993Z,87.18
2017-11-26T14:05:16.860Z,87.17
2017-11-26T14:07:44.667Z,87.39
2017-11-26T14:10:12.296Z,87.33
2017-11-26T14:12:40.076Z,87.55
2017-11-26T14:15:07.895Z,87.49
2017-11-26T14:17:35.658Z,87.46
2017-11-26T14:20:03.384Z,87.39
2017-11-26T14:22:31.023Z,87.32
2017-11-26T14:24:58.651Z,87.30
2017-11-26T14:27:26.334Z,87.80
2017-11-26T14:29:53.960Z,88.17
2017-11-26T14:32:21.600Z,87.59
2017-11-26T14:34:49.328Z,87.51
2017-11-26T14:37:17.057Z,87.69
2017-11-26T14:39:44.839Z,87.46
2017-11-26T14:42:12.713Z,87.43
2017-11-26T14:44:40.355Z,87.07
2017-11-26T14:47:08.004Z,87.12
2017-11-26T14:49:35.692Z,86.99
2017-11-26T14:52:03.320Z,87.00
2017-11-26T14:54:30.938Z,86.74
2017-11-26T14:56:58.647Z,86.65
2017-11-26T14:59:26.340Z,86.64
2017-11-26T15:01:54.106Z,86.64
2017-11-26T15:04:21.791Z,87.13
2017-11-26T15:06:49.485Z,87.62
2017-11-26T15:09:17.185Z,88.10
2017-11-26T15:11:44.949Z,88.15
2017-11-26T15:14:12.659Z,88.30
2017-11-26T15:16:40.387Z,88.19
2017-11-26T15:19:08.143Z,88.30
2017-11-26T15:21:35.853Z,88.11
2017-11-26T15:24:03.520Z,88.06
2017-11-26T15:26:31.258Z,88.12
2017-11-26T15:28:58.893Z,88.12
2017-11-26T15:31:26.556Z,87.94
2017-11-26T15:33:54.316Z,87.91
2017-11-26T15:36:22.064Z,87.92
2017-11-26T15:38:49.808Z,87.88
2017-11-26T15:41:17.684Z,87.77
2017-11-26T15:43:45.360Z,87.95
2017-11-26T15:46:13.024Z,88.26
2017-11-26T15:48:40.745Z,88.40
2017-11-26T15:51:08.425Z,88.47
2017-11-26T15:53:36.056Z,88.70
2017-11-26T15:56:03.734Z,88.78
2017-11-26T15:58:31.447Z,88.98
2017-11-26T16:00:59.084Z,89.13
2017-11-26T16:03:26.828Z,89.35
2017-11-26T16:05:54.463Z,89.53
2017-11-26T16:08:22.091Z,89.82
2017-11-26T16:10:49.780Z,90.11
2017-11-26T16:13:17.444Z,90.27
2017-11-26T16:15:45.141Z,90.35
2017-11-26T16:18:12.817Z,90.44
2017-11-26T16:20:40.453Z,90.21
2017-11-26T16:23:08.105Z,90.36
2017-11-26T16:25:35.807Z,90.09
2017-11-26T16:28:03.537Z,89.89
2017-11-26T16:30:31.234Z,89.92
2017-11-26T16:32:58.954Z,89.98
2017-11-26T16:35:26.598Z,89.75
2017-11-26T16:37:54.329Z,90.04
2017-11-26T16:40:22.100Z,90.32
2017-11-26T16:42:49.792Z,90.35
2017-11-26T16:45:17.558Z,90.42
2017-11-26T16:47:45.253Z,90.42
2017-11-26T16:50:12.940Z,90.46
2017-11-26T16:52:40.563Z,90.52
2017-11-26T16:55:08.248Z,90.66
2017-11-26T16:57:35.892Z,90.59
2017-11-26T17:00:03.601Z,90.58
2017-11-26T17:02:31.280Z,90.60
2017-11-26T17:04:59.031Z,90.51
2017-11-26T17:07:26.705Z,90.48
2017-11-26T17:09:54.490Z,90.59
2017-11-26T17:12:22.150Z,90.71
2017-11-26T17:14:49.900Z,90.69
2017-11-26T17:17:17.604Z,90.54
2017-11-26T17:19:45.305Z,90.54
2017-11-26T17:22:12.940Z,90.55
2017-11-26T17:24:40.624Z,90.34
2017-11-26T17:27:08.325Z,90.08
2017-11-26T17:29:35.962Z,89.92
2017-11-26T17:32:03.657Z,89.87
2017-11-26T17:34:31.343Z,89.83
2017-11-26T17:36:59.033Z,89.86
2017-11-26T17:39:26.729Z,89.84
2017-11-26T17:41:54.382Z,89.86
2017-11-26T17:44:22.048Z,89.85
2017-11-26T17:46:49.725Z,89.95
2017-11-26T17:49:17.369Z,90.21
2017-11-26T17:51:45.077Z,90.43
2017-11-26T17:54:12.783Z,90.15
2017-11-26T17:56:40.467Z,90.26
2017-11-26T17:59:08.096Z,90.26
2017-11-26T18:01:35.813Z,90.16
2017-11-26T18:04:03.429Z,90.07
2017-11-26T18:06:31.064Z,90.08
2017-11-26T18:08:58.814Z,89.60
2017-11-26T18:11:26.527Z,89.75
2017-11-26T18:13:54.151Z,89.89
2017-11-26T18:16:21.856Z,89.93
2017-11-26T18:18:49.537Z,89.64
2017-11-26T18:21:17.161Z,89.69
2017-11-26T18:23:44.884Z,89.83
2017-11-26T18:26:12.529Z,89.55
2017-11-26T18:28:40.209Z,89.32
2017-11-26T18:31:07.907Z,89.49
2017-11-26T18:33:35.552Z,89.25
2017-11-26T18:36:03.230Z,89.23
2017-11-26T18:38:30.901Z,89.24
2017-11-26T18:40:58.576Z,89.30
2017-11-26T18:43:26.890Z,89.41
2017-11-26T18:45:54.559Z,89.38
2017-11-26T18:48:22.178Z,89.14
2017-11-26T18:50:49.813Z,89.22
2017-11-26T18:53:17.537Z,89.14
2017-11-26T18:55:45.147Z,88.70
2017-11-26T18:58:12.768Z,88.96
2017-11-26T19:00:40.493Z,88.80
2017-11-26T19:03:08.115Z,88.61
2017-11-26T19:05:35.731Z,88.62
2017-11-26T19:08:03.470Z,88.75
2017-11-26T19:10:31.141Z,88.82
2017-11-26T19:12:58.757Z,88.74
2017-11-26T19:15:26.481Z,88.46
2017-11-26T19:17:54.164Z,88.49
2017-11-26T19:20:21.873Z,88.33
2017-11-26T19:22:49.537Z,88.42
2017-11-26T19:25:17.160Z,88.60
2017-11-26T19:27:44.852Z,88.66
2017-11-26T19:30:12.593Z,88.52
2017-11-26T19:32:40.209Z,88.48
2017-11-26T19:35:07.838Z,88.44
2017-11-26T19:37:35.508Z,88.47
2017-11-26T19:40:03.120Z,88.55
2017-11-26T19:42:30.748Z,88.63
2017-11-26T19:44:58.482Z,88.67
2017-11-26T19:47:26.156Z,88.83
2017-11-26T19:49:53.812Z,88.80
2017-11-26T19:52:21.488Z,88.66
2017-11-26T19:54:49.104Z,88.70
2017-11-26T19:57:16.776Z,88.93
2017-11-26T19:59:44.496Z,88.77
2017-11-26T20:02:12.159Z,88.76
2017-11-26T20:04:39.841Z,88.95
2017-11-26T20:07:07.557Z,88.89
2017-11-26T20:09:35.289Z,88.83
2017-11-26T20:12:03.034Z,88.79
2017-11-26T20:14:30.733Z,88.62
2017-11-26T20:16:58.388Z,88.56
2017-11-26T20:19:26.031Z,88.42
2017-11-26T20:21:53.789Z,88.25
2017-11-26T20:24:21.481Z,88.11
2017-11-26T20:26:49.104Z,87.92
2017-11-26T20:29:16.829Z,87.78
2017-11-26T20:31:44.500Z,87.70
2017-11-26T20:34:12.176Z,87.43
2017-11-26T20:36:39.833Z,87.45
2017-11-26T20:39:07.509Z,87.74
2017-11-26T20:41:35.193Z,87.87
2017-11-26T20:44:02.857Z,88.02
2017-11-26T20:46:30.539Z,88.26
2017-11-26T20:48:58.161Z,88.43
2017-11-26T20:51:25.913Z,88.50
2017-11-26T20:53:53.594Z,88.71
2017-11-26T20:56:21.268Z,88.89
2017-11-26T20:58:48.946Z,89.16
2017-11-26T21:01:16.566Z,89.40
2017-11-26T21:03:44.177Z,89.74
2017-11-26T21:06:11.836Z,90.06
2017-11-26T21:08:39.520Z,90.35
2017-11-26T21:11:07.196Z,90.33
2017-11-26T21:13:34.935Z,90.18
2017-11-26T21:16:02.628Z,90.10
2017-11-26T21:18:30.247Z,89.96
2017-11-26T21:20:57.949Z,89.73
2017-11-26T21:23:25.585Z,89.59
2017-11-26T21:25:53.315Z,89.43
2017-11-26T21:28:20.981Z,89.53
2017-11-26T21:30:48.607Z,89.85
2017-11-26T21:33:16.284Z,90.23
2017-11-26T21:35:43.945Z,90.78
2017-11-26T21:38:11.624Z,91.03
2017-11-26T21:40:39.240Z,91.15
2017-11-26T21:43:06.937Z,91.13
2017-11-26T21:45:34.616Z,90.88
2017-11-26T21:48:02.243Z,90.86
2017-11-26T21:50:29.908Z,91.20
2017-11-26T21:52:57.642Z,91.02
2017-11-26T21:55:25.260Z,90.79
2017-11-26T21:57:52.996Z,90.81
2017-11-26T22:00:20.624Z,90.85
2017-11-26T22:02:48.304Z,90.77
2017-11-26T22:05:16.035Z,90.61
2017-11-26T22:07:43.666Z,90.59
2017-11-26T22:10:11.355Z,90.46
2017-11-26T22:12:39.024Z,90.58
2017-11-26T22:15:06.700Z,90.82
2017-11-26T22:17:34.371Z,90.91
2017-11-26T22:20:02.037Z,91.22
2017-11-26T22:22:29.668Z,91.44
2017-11-26T22:24:57.307Z,91.53
2017-11-26T22:27:24.968Z,91.72
2017-11-26T22:29:52.595Z,91.71
2017-11-26T22:32:20.211Z,91.77
2017-11-26T22:34:47.888Z,91.86
2017-11-26T22:37:15.569Z,91.98
2017-11-26T22:39:43.190Z,92.25
2017-11-26T22:42:10.916Z,92.10
2017-11-26T22:44:38.592Z,92.18
2017-11-26T22:47:06.213Z,92.59
2017-11-26T22:49:33.889Z,92.84
2017-11-26T22:52:01.576Z,93.11
2017-11-26T22:54:29.213Z,93.05
2017-11-26T22:56:56.938Z,93.17
2017-11-26T22:59:24.552Z,93.09
2017-11-26T23:01:52.172Z,92.99
2017-11-26T23:04:19.820Z,92.81
2017-11-26T23:06:47.430Z,92.66
2017-11-26T23:09:15.034Z,92.59
2017-11-26T23:11:42.702Z,92.63
2017-11-26T23:14:10.308Z,92.44
2017-11-26T23:16:37.917Z,92.80
2017-11-26T23:19:05.632Z,92.68
2017-11-26T23:21:33.257Z,92.80
2017-11-26T23:24:00.873Z,92.82
2017-11-26T23:26:28.532Z,92.90
2017-11-26T23:28:56.136Z,93.04
2017-11-26T23:31:23.756Z,92.90
2017-11-26T23:33:51.513Z,92.96
2017-11-26T23:36:19.244Z,92.99
2017-11-26T23:38:46.860Z,92.91
2017-11-26T23:41:14.590Z,93.05
2017-11-26T23:43:42.212Z,93.04
2017-11-26T23:46:09.893Z,93.39
2017-11-26T23:48:37.621Z,93.32
2017-11-26T23:51:05.235Z,93.45
2017-11-26T23:53:32.897Z,93.36
2017-11-26T23:56:00.619Z,93.31
2017-11-26T23:58:28.290Z,93.40
